createdAt,value
2018-06-05T00:02:01.200Z,96327.66
2018-06-05T00:04:28.345Z,96325.89
2018-06-05T00:06:55.481Z,96325.09
2018-06-05T00:09:22.629Z,96324.70
2018-06-05T00:11:49.759Z,96319.85
2018-06-05T00:14:16.909Z,96320.55
2018-06-05T00:16:44.063Z,96324.89
2018-06-05T00:19:11.236Z,96324.03
2018-06-05T00:21:38.425Z,96291.05
2018-06-05T00:24:05.636Z,96324.41
2018-06-05T00:26:32.825Z,96320.20
2018-06-05T00:28:59.999Z,96322.02
2018-06-05T00:31:27.160Z,96325.25
2018-06-05T00:33:54.370Z,96327.90
2018-06-05T00:36:21.554Z,96317.67
2018-06-05T00:38:48.724Z,96320.43
2018-06-05T00:41:15.864Z,96321.70
2018-06-05T00:43:43.032Z,96324.25
2018-06-05T00:46:10.242Z,96319.04
2018-06-05T00:48:37.421Z,96326.75
2018-06-05T00:51:16.014Z,96319.44
2018-06-05T00:53:43.188Z,96326.63
2018-06-05T00:56:10.343Z,96324.83
2018-06-05T00:58:37.486Z,96316.80
2018-06-05T01:01:04.669Z,96323.12
2018-06-05T01:03:31.857Z,96325.86
2018-06-05T01:05:59.080Z,96329.12
2018-06-05T01:08:26.256Z,96334.02
2018-06-05T01:10:53.404Z,96326.98
2018-06-05T01:13:20.583Z,96326.22
2018-06-05T01:15:47.741Z,96333.27
2018-06-05T01:18:14.897Z,96325.77
2018-06-05T01:20:42.032Z,96325.19
2018-06-05T01:23:09.176Z,96327.37
2018-06-05T01:25:36.380Z,96318.84
2018-06-05T01:28:03.543Z,96319.48
2018-06-05T01:30:30.777Z,96312.30
2018-06-05T01:32:57.975Z,96313.22
2018-06-05T01:35:25.536Z,96319.58
2018-06-05T01:37:52.711Z,96320.61
2018-06-05T01:40:19.867Z,96323.92
2018-06-05T01:42:47.037Z,96321.45
2018-06-05T01:45:14.217Z,96319.53
2018-06-05T01:47:41.377Z,96312.91
2018-06-05T01:50:08.519Z,96316.44
2018-06-05T01:52:35.696Z,96311.04
2018-06-05T01:55:03.007Z,96319.27
2018-06-05T01:57:30.150Z,96321.36
2018-06-05T01:59:57.359Z,96315.22
2018-06-05T02:02:24.534Z,96315.84
2018-06-05T02:04:51.680Z,96314.65
2018-06-05T02:07:18.845Z,96309.89
2018-06-05T02:09:45.977Z,96312.48
2018-06-05T02:12:13.102Z,96314.70
2018-06-05T02:14:40.228Z,96314.66
2018-06-05T02:17:07.340Z,96311.67
2018-06-05T02:19:34.533Z,96314.44
2018-06-05T02:22:01.672Z,96312.11
2018-06-05T02:24:28.845Z,96320.59
2018-06-05T02:26:55.993Z,96317.90
2018-06-05T02:29:23.204Z,96324.98
2018-06-05T02:31:50.328Z,96318.84
2018-06-05T02:34:17.546Z,96320.10
2018-06-05T02:36:44.667Z,96319.44
2018-06-05T02:39:12.209Z,96322.08
2018-06-05T02:41:39.308Z,96330.02
2018-06-05T02:44:06.529Z,96322.99
2018-06-05T02:46:33.662Z,96323.07
2018-06-05T02:49:00.801Z,96320.87
2018-06-05T02:51:27.929Z,96326.66
2018-06-05T02:53:55.028Z,96328.57
2018-06-05T02:56:22.179Z,96329.97
2018-06-05T02:58:50.137Z,96328.81
2018-06-05T03:01:17.352Z,96330.45
2018-06-05T03:03:44.515Z,96332.58
2018-06-05T03:06:11.659Z,96334.18
2018-06-05T03:08:38.806Z,96337.52
2018-06-05T03:11:06.000Z,96338.22
2018-06-05T03:13:33.185Z,96338.12
2018-06-05T03:16:00.311Z,96219.27
2018-06-05T03:18:27.443Z,96340.61
2018-06-05T03:20:54.567Z,96343.23
2018-06-05T03:23:21.861Z,96346.05
2018-06-05T03:25:49.036Z,96349.39
2018-06-05T03:28:16.169Z,96354.27
2018-06-05T03:30:43.369Z,96353.77
2018-06-05T03:33:10.517Z,96353.73
2018-06-05T03:35:37.717Z,96362.23
2018-06-05T03:38:04.829Z,96367.55
2018-06-05T03:40:31.908Z,96370.05
2018-06-05T03:42:59.038Z,96367.11
2018-06-05T03:45:26.143Z,96373.59
2018-06-05T03:47:53.252Z,96367.34
2018-06-05T03:50:20.332Z,96366.41
2018-06-05T03:52:47.468Z,96372.63
2018-06-05T03:55:14.572Z,96374.09
2018-06-05T03:57:41.760Z,96374.13
2018-06-05T04:00:08.945Z,96384.22
2018-06-05T04:02:36.128Z,96384.72
2018-06-05T04:05:03.244Z,96380.28
2018-06-05T04:07:30.425Z,96383.09
2018-06-05T04:09:57.605Z,96378.49
2018-06-05T04:12:24.711Z,96381.02
2018-06-05T04:14:51.837Z,96389.20
2018-06-05T04:17:18.951Z,96390.07
2018-06-05T04:19:46.212Z,96396.37
2018-06-05T04:22:13.328Z,96385.53
2018-06-05T04:24:40.450Z,96390.23
2018-06-05T04:27:07.700Z,96395.23
2018-06-05T04:29:34.812Z,96391.73
2018-06-05T04:32:02.045Z,96395.12
2018-06-05T04:34:29.128Z,96394.07
2018-06-05T04:36:56.308Z,96398.64
2018-06-05T04:39:23.557Z,96397.14
2018-06-05T04:41:50.704Z,96395.88
2018-06-05T04:44:17.836Z,96399.14
2018-06-05T04:46:44.953Z,96400.42
2018-06-05T04:49:12.121Z,96396.63
2018-06-05T04:51:39.235Z,96398.53
2018-06-05T04:54:06.386Z,96404.14
2018-06-05T04:56:33.594Z,96407.41
2018-06-05T04:59:00.711Z,96406.62
2018-06-05T05:01:27.837Z,96408.23
2018-06-05T05:03:54.961Z,96403.80
2018-06-05T05:06:22.109Z,96405.39
2018-06-05T05:08:49.272Z,96404.84
2018-06-05T05:11:16.385Z,96408.81
2018-06-05T05:13:43.525Z,96407.59
2018-06-05T05:16:10.695Z,96404.95
2018-06-05T05:18:37.844Z,96410.02
2018-06-05T05:21:05.000Z,96410.14
2018-06-05T05:23:32.152Z,96406.91
2018-06-05T05:25:59.320Z,96412.13
2018-06-05T05:28:26.433Z,96408.69
2018-06-05T05:30:53.602Z,96413.84
2018-06-05T05:33:20.737Z,96415.02
2018-06-05T05:35:47.896Z,96419.62
2018-06-05T05:38:15.039Z,96420.77
2018-06-05T05:40:42.190Z,96415.19
2018-06-05T05:43:09.352Z,96417.72
2018-06-05T05:45:36.473Z,96419.23
2018-06-05T05:48:03.653Z,96422.70
2018-06-05T05:50:30.768Z,96419.81
2018-06-05T05:52:57.913Z,96425.56
2018-06-05T05:55:25.029Z,96426.52
2018-06-05T05:57:52.181Z,96420.65
2018-06-05T06:00:19.333Z,96422.97
2018-06-05T06:02:46.471Z,96420.04
2018-06-05T06:05:13.593Z,96410.94
2018-06-05T06:07:40.696Z,96413.98
2018-06-05T06:10:07.845Z,96416.59
2018-06-05T06:12:34.985Z,96416.44
2018-06-05T06:15:02.176Z,96416.47
2018-06-05T06:17:29.277Z,96411.63
2018-06-05T06:19:56.396Z,96414.66
2018-06-05T06:22:23.549Z,96418.68
2018-06-05T06:24:50.722Z,96416.83
2018-06-05T06:27:17.845Z,96422.55
2018-06-05T06:29:45.020Z,96417.88
2018-06-05T06:32:12.236Z,96414.13
2018-06-05T06:34:39.364Z,96418.52
2018-06-05T06:37:06.471Z,96408.37
2018-06-05T06:39:33.614Z,96409.09
2018-06-05T06:42:00.739Z,96415.41
2018-06-05T06:44:27.893Z,96418.44
2018-06-05T06:46:55.037Z,96417.55
2018-06-05T06:49:22.133Z,96423.91
2018-06-05T06:51:49.241Z,96429.16
2018-06-05T06:54:16.352Z,96419.90
2018-06-05T06:56:43.544Z,96418.45
2018-06-05T06:59:10.702Z,96421.13
2018-06-05T07:01:37.860Z,96420.26
2018-06-05T07:04:05.023Z,96420.80
2018-06-05T07:06:32.132Z,96419.16
2018-06-05T07:08:59.268Z,96417.38
2018-06-05T07:11:26.433Z,96424.14
2018-06-05T07:13:53.604Z,96422.65
2018-06-05T07:16:20.688Z,96424.97
2018-06-05T07:18:47.936Z,96430.25
2018-06-05T07:21:15.096Z,96427.58
2018-06-05T07:23:42.271Z,96427.27
2018-06-05T07:26:09.439Z,96431.02
2018-06-05T07:28:36.614Z,96428.97
2018-06-05T07:31:03.750Z,96436.49
2018-06-05T07:33:30.873Z,96426.87
2018-06-05T07:35:58.058Z,96419.67
2018-06-05T07:38:25.186Z,96422.64
2018-06-05T07:40:52.349Z,96421.48
2018-06-05T07:43:19.541Z,96423.34
2018-06-05T07:45:46.688Z,96419.73
2018-06-05T07:48:13.830Z,96414.08
2018-06-05T07:50:40.972Z,96420.05
2018-06-05T07:53:08.124Z,96414.48
2018-06-05T07:55:35.257Z,96406.77
2018-06-05T07:58:02.450Z,96413.18
2018-06-05T08:00:29.555Z,96407.56
2018-06-05T08:02:56.670Z,96411.90
2018-06-05T08:05:23.750Z,96414.22
2018-06-05T08:07:50.897Z,96412.56
2018-06-05T08:10:18.073Z,96417.11
2018-06-05T08:12:45.197Z,96411.44
2018-06-05T08:15:12.394Z,96414.30
2018-06-05T08:17:39.557Z,96403.97
2018-06-05T08:20:06.699Z,96413.48
2018-06-05T08:22:45.833Z,96410.55
2018-06-05T08:25:12.999Z,96417.79
2018-06-05T08:27:40.153Z,96410.13
2018-06-05T08:30:07.292Z,96414.06
2018-06-05T08:32:34.408Z,96413.19
2018-06-05T08:35:01.522Z,96415.58
2018-06-05T08:37:28.657Z,96409.91
2018-06-05T08:39:55.823Z,96409.25
2018-06-05T08:42:22.962Z,96412.66
2018-06-05T08:44:50.143Z,96409.69
2018-06-05T08:47:17.311Z,96407.94
2018-06-05T08:49:44.504Z,96409.63
2018-06-05T08:52:11.641Z,96403.33
2018-06-05T08:54:38.808Z,96407.62
2018-06-05T08:57:06.016Z,96407.53
2018-06-05T08:59:33.192Z,96404.68
2018-06-05T09:02:00.333Z,96401.24
2018-06-05T09:04:27.535Z,96403.34
2018-06-05T09:06:54.687Z,96402.07
2018-06-05T09:09:21.849Z,96414.05
2018-06-05T09:11:48.976Z,96413.06
2018-06-05T09:14:16.095Z,96412.64
2018-06-05T09:16:43.255Z,96412.34
2018-06-05T09:19:10.359Z,96410.09
2018-06-05T09:21:37.490Z,96409.00
2018-06-05T09:24:04.648Z,96402.30
2018-06-05T09:26:31.793Z,96405.98
2018-06-05T09:28:58.984Z,96406.91
2018-06-05T09:31:26.086Z,96409.91
2018-06-05T09:33:53.232Z,96409.44
2018-06-05T09:36:20.356Z,96406.44
2018-06-05T09:38:47.484Z,96411.47
2018-06-05T09:41:14.630Z,96408.73
2018-06-05T09:43:41.761Z,96406.14
2018-06-05T09:46:08.968Z,96413.63
2018-06-05T09:48:36.092Z,96415.44
2018-06-05T09:51:03.297Z,96410.83
2018-06-05T09:53:30.429Z,96403.91
2018-06-05T09:55:57.591Z,96397.55
2018-06-05T09:58:24.899Z,96391.80
2018-06-05T10:00:52.732Z,96393.02
2018-06-05T10:03:20.565Z,96393.94
2018-06-05T10:05:47.776Z,96388.80
2018-06-05T10:08:14.956Z,96392.23
2018-06-05T10:10:42.092Z,96393.52
2018-06-05T10:13:09.330Z,96395.87
2018-06-05T10:15:36.511Z,96393.01
2018-06-05T10:18:03.985Z,96389.61
2018-06-05T10:20:31.129Z,96396.06
2018-06-05T10:22:58.248Z,96383.02
2018-06-05T10:25:25.396Z,96385.91
2018-06-05T10:27:52.565Z,96377.64
2018-06-05T10:30:19.720Z,96385.63
2018-06-05T10:32:46.888Z,96381.43
2018-06-05T10:35:14.010Z,96384.15
2018-06-05T10:37:41.172Z,96383.95
2018-06-05T10:40:08.335Z,96381.19
2018-06-05T10:42:35.483Z,96383.63
2018-06-05T10:45:02.753Z,96380.03
2018-06-05T10:47:29.926Z,96377.91
2018-06-05T10:49:57.067Z,96375.20
2018-06-05T10:52:24.213Z,96370.09
2018-06-05T10:54:51.327Z,96375.54
2018-06-05T10:57:18.530Z,96379.85
2018-06-05T10:59:45.699Z,96375.52
2018-06-05T11:02:12.873Z,96384.09
2018-06-05T11:04:40.040Z,96380.57
2018-06-05T11:07:07.177Z,96368.46
2018-06-05T11:09:34.272Z,96375.41
2018-06-05T11:12:01.414Z,96369.38
2018-06-05T11:14:28.574Z,96364.34
2018-06-05T11:16:55.729Z,96369.35
2018-06-05T11:19:22.848Z,96367.09
2018-06-05T11:21:50.035Z,96368.97
2018-06-05T11:24:17.177Z,96365.66
2018-06-05T11:26:44.301Z,96367.84
2018-06-05T11:29:11.435Z,96366.98
2018-06-05T11:31:38.590Z,96357.19
2018-06-05T11:34:05.753Z,96356.73
2018-06-05T11:36:32.969Z,96362.78
2018-06-05T11:39:00.065Z,96356.67
2018-06-05T11:41:27.236Z,96354.83
2018-06-05T11:43:54.371Z,96354.38
2018-06-05T11:46:21.520Z,96352.07
2018-06-05T11:48:48.645Z,96349.83
2018-06-05T11:51:15.809Z,96349.16
2018-06-05T11:53:42.905Z,96349.86
2018-06-05T11:56:10.011Z,96342.77
2018-06-05T11:58:37.181Z,96342.06
2018-06-05T12:01:04.376Z,96346.50
2018-06-05T12:03:31.565Z,96348.80
2018-06-05T12:05:59.508Z,96347.02
2018-06-05T12:08:26.684Z,96348.26
2018-06-05T12:10:53.798Z,96339.86
2018-06-05T12:13:20.990Z,96338.20
2018-06-05T12:15:48.185Z,96335.58
2018-06-05T12:18:15.364Z,96333.19
2018-06-05T12:20:42.500Z,96341.70
2018-06-05T12:23:09.373Z,96336.48
2018-06-05T12:25:36.582Z,96332.31
2018-06-05T12:28:03.732Z,96320.01
2018-06-05T12:30:30.907Z,96326.11
2018-06-05T12:32:58.082Z,96316.99
2018-06-05T12:35:25.256Z,96319.82
2018-06-05T12:37:52.417Z,96311.52
2018-06-05T12:40:19.596Z,96314.30
2018-06-05T12:42:46.728Z,96311.84
2018-06-05T12:45:13.892Z,96311.37
2018-06-05T12:47:41.051Z,96313.80
2018-06-05T12:50:08.168Z,96300.16
2018-06-05T12:52:35.321Z,96310.23
2018-06-05T12:55:02.492Z,96307.55
2018-06-05T12:57:29.669Z,96306.24
2018-06-05T12:59:58.846Z,96310.06
2018-06-05T13:02:26.052Z,96305.78
2018-06-05T13:04:53.231Z,96306.37
2018-06-05T13:07:20.408Z,96314.41
2018-06-05T13:09:47.541Z,96316.88
2018-06-05T13:12:14.681Z,96311.87
2018-06-05T13:14:41.880Z,96306.58
2018-06-05T13:17:09.013Z,96308.05
2018-06-05T13:19:36.185Z,96313.46
2018-06-05T13:22:03.388Z,96313.56
2018-06-05T13:24:30.501Z,96307.30
2018-06-05T13:27:02.810Z,96302.30
2018-06-05T13:29:29.952Z,96307.61
2018-06-05T13:31:57.100Z,96296.52
2018-06-05T13:34:24.256Z,96296.05
2018-06-05T13:36:51.363Z,96292.60
2018-06-05T13:39:18.633Z,96299.16
2018-06-05T13:41:45.746Z,96294.47
2018-06-05T13:44:12.888Z,96300.67
2018-06-05T13:46:40.026Z,96301.19
2018-06-05T13:49:07.149Z,96295.64
2018-06-05T13:51:34.233Z,96297.63
2018-06-05T13:54:01.371Z,96299.38
2018-06-05T13:56:28.532Z,96291.33
2018-06-05T13:58:55.676Z,96292.13
2018-06-05T14:01:22.806Z,96286.25
2018-06-05T14:03:49.969Z,96288.97
2018-06-05T14:06:17.132Z,96290.11
2018-06-05T14:08:44.299Z,96289.09
2018-06-05T14:11:11.464Z,96289.84
2018-06-05T14:13:38.617Z,96286.83
2018-06-05T14:16:05.764Z,96286.55
2018-06-05T14:18:32.866Z,96282.44
2018-06-05T14:21:00.007Z,96289.48
2018-06-05T14:23:27.209Z,96282.89
2018-06-05T14:25:54.353Z,96280.64
2018-06-05T14:28:21.516Z,96281.03
2018-06-05T14:30:48.691Z,96286.23
2018-06-05T14:33:15.830Z,96281.87
2018-06-05T14:35:42.956Z,96277.67
2018-06-05T14:38:10.124Z,96280.22
2018-06-05T14:40:37.271Z,96277.07
2018-06-05T14:43:04.393Z,96277.13
2018-06-05T14:45:31.544Z,96274.69
2018-06-05T14:47:58.688Z,96271.40
2018-06-05T14:50:25.833Z,96271.09
2018-06-05T14:52:52.996Z,96271.98
2018-06-05T14:55:20.189Z,96271.40
2018-06-05T14:57:47.385Z,96274.09
2018-06-05T15:00:14.492Z,96273.52
2018-06-05T15:02:41.617Z,96272.94
2018-06-05T15:05:08.791Z,96266.09
2018-06-05T15:07:35.942Z,96271.85
2018-06-05T15:10:03.228Z,96273.22
2018-06-05T15:12:30.407Z,96276.62
2018-06-05T15:14:57.563Z,96276.36
2018-06-05T15:17:24.754Z,96267.03
2018-06-05T15:19:51.880Z,96265.34
2018-06-05T15:22:19.022Z,96265.47
2018-06-05T15:24:46.161Z,96271.22
2018-06-05T15:27:13.297Z,96257.16
2018-06-05T15:29:40.439Z,96265.01
2018-06-05T15:32:07.590Z,96262.09
2018-06-05T15:34:34.916Z,96270.34
2018-06-05T15:37:02.124Z,96268.86
2018-06-05T15:39:29.381Z,96270.80
2018-06-05T15:41:56.674Z,96269.61
2018-06-05T15:44:25.682Z,96267.31
2018-06-05T15:46:53.983Z,96275.08
2018-06-05T15:49:21.194Z,96270.42
2018-06-05T15:51:48.320Z,96276.33
2018-06-05T15:54:15.547Z,96274.97
2018-06-05T15:56:42.688Z,96278.73
2018-06-05T15:59:09.861Z,96274.03
2018-06-05T16:01:37.003Z,96276.30
2018-06-05T16:04:04.496Z,96271.45
2018-06-05T16:06:31.602Z,96270.80
2018-06-05T16:08:58.800Z,96268.44
2018-06-05T16:11:25.950Z,96274.79
2018-06-05T16:13:53.110Z,96277.17
2018-06-05T16:16:20.292Z,96279.40
2018-06-05T16:18:47.472Z,96279.84
2018-06-05T16:21:14.608Z,96284.56
2018-06-05T16:23:41.747Z,96281.76
2018-06-05T16:26:08.893Z,96287.27
2018-06-05T16:28:36.019Z,96281.63
2018-06-05T16:31:03.190Z,96292.48
2018-06-05T16:33:30.361Z,96289.20
2018-06-05T16:35:57.552Z,96289.44
2018-06-05T16:38:24.749Z,96290.69
2018-06-05T16:40:51.957Z,96286.78
2018-06-05T16:43:19.101Z,96288.08
2018-06-05T16:45:46.349Z,96290.98
2018-06-05T16:48:13.522Z,96292.59
2018-06-05T16:50:40.677Z,96298.75
2018-06-05T16:53:07.847Z,96304.97
2018-06-05T16:55:35.000Z,96299.09
2018-06-05T16:58:02.152Z,96301.24
2018-06-05T17:00:29.305Z,96300.38
2018-06-05T17:02:56.457Z,96305.89
2018-06-05T17:05:23.648Z,96303.56
2018-06-05T17:07:50.802Z,96309.26
2018-06-05T17:10:17.941Z,96311.59
2018-06-05T17:12:45.191Z,96315.64
2018-06-05T17:15:12.416Z,96311.91
2018-06-05T17:17:39.557Z,96314.38
2018-06-05T17:20:06.713Z,96316.09
2018-06-05T17:22:33.886Z,96321.22
2018-06-05T17:25:01.061Z,96323.83
2018-06-05T17:27:28.286Z,96323.25
2018-06-05T17:29:55.363Z,96327.49
2018-06-05T17:32:22.589Z,96319.05
2018-06-05T17:34:49.794Z,96323.59
2018-06-05T17:37:17.013Z,96322.58
2018-06-05T17:39:44.177Z,96326.54
2018-06-05T17:42:11.334Z,96326.23
2018-06-05T17:44:38.536Z,96332.38
2018-06-05T17:47:05.709Z,96334.19
2018-06-05T17:49:32.860Z,96324.34
2018-06-05T17:52:00.025Z,96329.84
2018-06-05T17:54:27.234Z,96330.91
2018-06-05T17:56:54.386Z,96325.11
2018-06-05T17:59:21.558Z,96323.16
2018-06-05T18:01:48.736Z,96323.27
2018-06-05T18:04:15.926Z,96331.56
2018-06-05T18:06:43.088Z,96328.46
2018-06-05T18:09:10.237Z,96333.86
2018-06-05T18:11:37.431Z,96324.99
2018-06-05T18:14:04.550Z,96334.27
2018-06-05T18:16:31.702Z,96331.03
2018-06-05T18:18:58.881Z,96338.33
2018-06-05T18:21:26.091Z,96339.00
2018-06-05T18:23:53.381Z,96340.28
2018-06-05T18:26:20.533Z,96339.80
2018-06-05T18:28:47.646Z,96348.38
2018-06-05T18:31:14.800Z,96339.59
2018-06-05T18:33:41.970Z,96344.25
2018-06-05T18:36:09.193Z,96346.02
2018-06-05T18:38:36.337Z,96345.64
2018-06-05T18:41:03.525Z,96344.35
2018-06-05T18:43:30.693Z,96353.56
2018-06-05T18:45:57.830Z,96352.59
2018-06-05T18:48:24.999Z,96354.66
2018-06-05T18:50:52.156Z,96355.91
2018-06-05T18:53:26.164Z,96360.83
2018-06-05T18:55:53.432Z,96368.33
2018-06-05T18:58:20.592Z,96365.31
2018-06-05T19:00:47.777Z,96366.41
2018-06-05T19:03:15.028Z,96366.21
2018-06-05T19:05:42.221Z,96377.38
2018-06-05T19:08:09.374Z,96378.37
2018-06-05T19:10:36.522Z,96377.09
2018-06-05T19:13:03.672Z,96384.06
2018-06-05T19:15:30.865Z,96378.37
2018-06-05T19:17:58.078Z,96379.28
2018-06-05T19:20:25.259Z,96383.35
2018-06-05T19:22:52.366Z,96391.25
2018-06-05T19:25:19.589Z,96395.98
2018-06-05T19:27:46.763Z,96403.42
2018-06-05T19:30:14.016Z,96405.72
2018-06-05T19:32:41.204Z,96412.70
2018-06-05T19:35:08.341Z,96419.14
2018-06-05T19:37:35.489Z,96419.47
2018-06-05T19:40:02.670Z,96422.11
2018-06-05T19:42:29.845Z,96432.81
2018-06-05T19:44:56.992Z,96428.00
2018-06-05T19:47:24.149Z,96425.67
2018-06-05T19:49:51.340Z,96440.75
2018-06-05T19:52:18.493Z,96435.18
2018-06-05T19:54:45.701Z,96439.50
2018-06-05T19:57:13.891Z,96438.12
2018-06-05T19:59:41.068Z,96443.15
2018-06-05T20:02:08.225Z,96440.81
2018-06-05T20:17:39.997Z,96444.33
2018-06-05T20:20:07.260Z,96458.80
2018-06-05T20:22:34.449Z,96464.20
2018-06-05T20:25:01.650Z,96467.38
2018-06-05T20:27:28.840Z,96469.69
2018-06-05T20:29:55.978Z,96469.88
2018-06-05T20:32:23.176Z,96470.50
2018-06-05T20:34:50.373Z,96473.97
2018-06-05T20:37:17.556Z,96480.88
2018-06-05T20:39:44.728Z,96479.00
2018-06-05T20:42:11.884Z,96490.94
2018-06-05T20:44:39.061Z,96494.57
2018-06-05T20:47:06.376Z,96492.50
2018-06-05T20:49:33.578Z,96498.22
2018-06-05T20:52:00.815Z,96508.58
2018-06-05T20:54:27.934Z,96510.30
2018-06-05T20:56:55.152Z,96507.81
2018-06-05T20:59:22.340Z,96511.29
2018-06-05T21:01:49.516Z,96513.00
2018-06-05T21:04:16.854Z,96514.34
2018-06-05T21:06:43.977Z,96518.77
2018-06-05T21:09:11.167Z,96521.04
2018-06-05T21:11:38.387Z,96521.25
2018-06-05T21:14:05.504Z,96524.30
2018-06-05T21:16:32.636Z,96525.66
2018-06-05T21:18:59.778Z,96525.09
2018-06-05T21:21:26.960Z,96520.27
2018-06-05T21:23:54.086Z,96526.03
2018-06-05T21:26:21.248Z,96526.78
2018-06-05T21:28:48.395Z,96526.58
2018-06-05T21:31:15.554Z,96530.23
2018-06-05T21:33:42.813Z,96533.33
2018-06-05T21:36:09.939Z,96531.60
2018-06-05T21:38:37.124Z,96536.60
2018-06-05T21:41:04.293Z,96542.55
2018-06-05T21:43:31.412Z,96540.75
2018-06-05T21:45:58.571Z,96548.44
2018-06-05T21:48:25.720Z,96550.73
2018-06-05T21:50:52.847Z,96546.49
2018-06-05T21:53:19.983Z,96544.77
2018-06-05T21:55:47.129Z,96544.58
2018-06-05T21:58:14.368Z,96553.20
2018-06-05T22:00:41.568Z,96549.61
2018-06-05T22:03:08.717Z,96552.25
2018-06-05T22:05:35.866Z,96554.13
2018-06-05T22:08:03.015Z,96546.84
2018-06-05T22:10:30.183Z,96551.22
2018-06-05T22:12:57.293Z,96546.77
2018-06-05T22:15:24.416Z,96538.19
2018-06-05T22:17:51.593Z,96543.33
2018-06-05T22:20:18.753Z,96548.11
2018-06-05T22:22:45.908Z,96546.16
2018-06-05T22:25:13.047Z,96556.11
2018-06-05T22:27:40.179Z,96549.64
2018-06-05T22:30:07.284Z,96552.08
2018-06-05T22:32:34.427Z,96555.58
2018-06-05T22:35:01.657Z,96556.31
2018-06-05T22:37:28.799Z,96551.66
2018-06-05T22:39:55.927Z,96555.61
2018-06-05T22:42:23.037Z,96549.02
2018-06-05T22:44:50.200Z,96546.95
2018-06-05T22:47:17.336Z,96545.77
2018-06-05T22:49:44.476Z,96554.14
2018-06-05T22:52:11.585Z,96556.10
2018-06-05T22:54:38.713Z,96558.80
2018-06-05T22:57:05.913Z,96555.29
2018-06-05T22:59:33.045Z,96559.32
2018-06-05T23:02:00.226Z,96560.58
2018-06-05T23:04:27.353Z,96557.89
2018-06-05T23:06:54.507Z,96552.28
2018-06-05T23:09:21.605Z,96553.79
2018-06-05T23:11:48.714Z,96551.98
2018-06-05T23:14:15.823Z,96552.95
2018-06-05T23:16:43.032Z,96546.44
2018-06-05T23:19:10.150Z,96542.11
2018-06-05T23:21:37.297Z,96544.02
2018-06-05T23:24:04.481Z,96540.54
2018-06-05T23:26:31.688Z,96540.44
2018-06-05T23:28:58.822Z,96536.44
2018-06-05T23:31:25.972Z,96532.37
2018-06-05T23:33:53.232Z,96530.08
2018-06-05T23:36:20.321Z,96535.04
2018-06-05T23:38:47.481Z,96529.02
2018-06-05T23:41:14.580Z,96534.77
2018-06-05T23:43:41.724Z,96533.69
2018-06-05T23:46:08.835Z,96534.77
2018-06-05T23:48:35.964Z,96537.18
2018-06-05T23:51:03.075Z,96539.39
2018-06-05T23:53:30.216Z,96534.75
2018-06-05T23:55:57.372Z,96546.90
2018-06-05T23:58:24.500Z,96548.77
